Time;durP1;ratioP1;P1;durP2;ratioP2;P2;SDS_P1;SDS_P2;PMS_P1;PMS_P2;Temp;Humidity;BMP_temperature;BMP_pressure;BME280_temperature;BME280_humidity;BME280_pressure;Samples;Min_cycle;Max_cycle;Signal;HPM_P1;HPM_P2
2022/11/05 00:10:40;;;;;;;37.50;16.10;;;;;;;7.92;nan;-24038.31;5015047;28;20163;-74
2022/11/05 00:18:37;;;;;;;33.53;17.07;;;;;;;8.13;nan;-24044.00;5014413;28;20178;-73
2022/11/05 00:21:03;;;;;;;41.13;15.50;;;;;;;8.10;nan;-24043.13;5014600;28;20168;-73
2022/11/05 00:26:13;;;;;;;36.60;16.67;;;;;;;7.99;nan;-24040.31;5014490;28;20238;-73
2022/11/05 00:28:42;;;;;;;33.60;16.57;;;;;;;8.24;nan;-24047.09;5014997;28;20176;-73
2022/11/05 00:31:10;;;;;;;35.93;15.70;;;;;;;8.03;nan;-24041.16;5014740;28;20210;-73
2022/11/05 00:33:40;;;;;;;40.27;17.00;;;;;;;8.42;nan;-24052.34;5014613;28;20676;-76
2022/11/05 00:36:07;;;;;;;31.93;15.73;;;;;;;8.41;nan;-24051.91;5015349;28;20206;-72
2022/11/05 00:38:33;;;;;;;46.67;16.77;;;;;;;8.04;nan;-24041.44;5015194;28;20172;-72
2022/11/05 00:40:59;;;;;;;35.53;16.27;;;;;;;8.02;nan;-24041.00;5014675;28;20595;-73
2022/11/05 00:46:08;;;;;;;34.23;13.77;;;;;;;8.21;nan;-24046.25;5014757;28;20667;-74
2022/11/05 00:51:17;;;;;;;30.43;13.43;;;;;;;3.68;nan;-23918.97;5014274;28;20171;-73
2022/11/05 00:53:43;;;;;;;35.77;16.37;;;;;;;7.84;nan;-24035.91;5014686;28;20180;-72
2022/11/05 00:56:08;;;;;;;41.20;15.90;;;;;;;8.41;nan;-24052.06;5012777;28;20215;-72
2022/11/05 00:58:34;;;;;;;36.13;14.40;;;;;;;8.40;nan;-24051.63;5012914;28;20176;-73
2022/11/05 01:01:01;;;;;;;35.37;14.67;;;;;;;8.41;nan;-24052.06;5013575;28;20172;-73
2022/11/05 01:03:33;;;;;;;30.40;14.80;;;;;;;8.54;nan;-24055.59;5016053;28;20180;-73
2022/11/05 01:06:06;;;;;;;29.97;13.23;;;;;;;8.38;nan;-24051.06;5015398;28;20180;-72
2022/11/05 01:08:32;;;;;;;24.20;11.67;;;;;;;7.83;nan;-24035.63;5014543;28;20176;-73
2022/11/05 01:10:58;;;;;;;29.70;14.07;;;;;;;8.08;nan;-24042.72;5014373;28;20180;-74
2022/11/05 01:13:26;;;;;;;35.00;14.23;;;;;;;8.28;nan;-24048.22;5014107;28;20222;-73
2022/11/05 01:15:53;;;;;;;31.63;14.83;;;;;;;8.18;nan;-24045.41;5014202;28;20173;-72
2022/11/05 01:18:20;;;;;;;36.80;15.67;;;;;;;8.43;nan;-24052.63;5013639;28;20262;-72
2022/11/05 01:20:46;;;;;;;33.67;14.93;;;;;;;8.34;nan;-24050.06;5012506;28;20215;-73
2022/11/05 01:23:11;;;;;;;29.03;14.83;;;;;;;8.02;nan;-24041.00;5014008;28;20226;-73
2022/11/05 01:25:37;;;;;;;30.33;14.27;;;;;;;8.28;nan;-24048.38;5013632;28;20228;-73
2022/11/05 01:28:03;;;;;;;38.70;13.50;;;;;;;7.96;nan;-24039.44;5012397;28;20176;-74
2022/11/05 01:30:29;;;;;;;19.90;10.80;;;;;;;8.09;nan;-24042.84;5013747;28;20579;-74
2022/11/05 01:32:54;;;;;;;29.43;13.80;;;;;;;7.88;nan;-24037.19;5013905;28;20172;-72
2022/11/05 01:35:20;;;;;;;27.47;12.73;;;;;;;8.11;nan;-24043.56;5012387;28;20187;-72
2022/11/05 01:37:45;;;;;;;26.83;12.43;;;;;;;7.79;nan;-24034.50;5013775;28;20214;-71
2022/11/05 01:40:21;;;;;;;22.43;11.63;;;;;;;8.25;nan;-24047.53;5013723;28;20577;-73
2022/11/05 01:42:47;;;;;;;28.20;13.60;;;;;;;8.24;nan;-24047.09;5013978;28;20636;-73
2022/11/05 01:45:23;;;;;;;26.00;12.97;;;;;;;8.25;nan;-24047.38;5013666;28;20707;-73
2022/11/05 01:47:55;;;;;;;26.80;12.97;;;;;;;8.25;nan;-24047.53;5013872;28;20251;-72
2022/11/05 01:50:46;;;;;;;30.77;13.73;;;;;;;7.84;nan;-24036.06;5011581;28;20190;-71
2022/11/05 01:53:18;;;;;;;25.77;11.13;;;;;;;8.14;nan;-24044.28;5013707;28;20184;-72
2022/11/05 01:55:50;;;;;;;22.03;12.43;;;;;;;8.10;nan;-24043.28;5012791;28;20268;-72
2022/11/05 01:58:20;;;;;;;27.60;12.30;;;;;;;8.24;nan;-24047.09;5013428;28;20226;-72
2022/11/05 02:00:46;;;;;;;24.80;12.80;;;;;;;8.06;nan;-24042.00;5012732;28;20180;-73
2022/11/05 02:03:14;;;;;;;22.97;11.70;;;;;;;7.64;nan;-24030.38;5013199;28;20172;-73
2022/11/05 02:05:40;;;;;;;22.10;10.97;;;;;;;7.92;nan;-24038.19;5013231;28;20512;-73
2022/11/05 02:08:14;;;;;;;24.60;12.70;;;;;;;7.91;nan;-24037.88;5011744;28;20206;-73
2022/11/05 02:10:42;;;;;;;27.90;12.80;;;;;;;7.49;nan;-24026.13;5013028;28;20647;-73
2022/11/05 02:13:08;;;;;;;27.40;12.67;;;;;;;7.81;nan;-24035.22;5012225;28;20234;-71
2022/11/05 02:15:43;;;;;;;27.30;12.53;;;;;;;7.87;nan;-24036.91;5012882;28;20172;-72
2022/11/05 02:18:19;;;;;;;28.17;12.03;;;;;;;7.91;nan;-24038.03;5013171;28;20567;-72
2022/11/05 02:21:21;;;;;;;29.00;13.47;;;;;;;7.87;nan;-24036.91;5013113;28;20242;-73
2022/11/05 02:23:59;;;;;;;24.73;11.57;;;;;;;7.83;nan;-24035.78;5012505;28;20176;-72
2022/11/05 02:26:33;;;;;;;26.90;13.47;;;;;;;7.37;nan;-24022.88;5013119;28;20223;-71
2022/11/05 02:29:33;;;;;;;33.43;12.13;;;;;;;7.60;nan;-24029.09;5012621;28;20348;-73
2022/11/05 02:32:11;;;;;;;23.23;11.53;;;;;;;7.45;nan;-24025.13;5012989;28;20212;-71
2022/11/05 02:34:54;;;;;;;29.50;11.97;;;;;;;7.60;nan;-24029.25;5012857;28;20172;-72
2022/11/05 02:37:40;;;;;;;25.77;13.53;;;;;;;7.48;nan;-24025.84;5012735;28;20223;-73
2022/11/05 02:40:31;;;;;;;16.43;8.90;;;;;;;7.69;nan;-24031.81;5012786;28;20540;-73
2022/11/05 02:43:21;;;;;;;20.80;9.97;;;;;;;7.68;nan;-24031.38;5012489;28;20172;-72
2022/11/05 02:46:11;;;;;;;23.27;11.40;;;;;;;7.61;nan;-24029.41;5012414;28;20678;-73
2022/11/05 02:48:54;;;;;;;26.07;11.20;;;;;;;7.53;nan;-24027.41;5012212;28;20168;-73
2022/11/05 02:51:36;;;;;;;19.73;10.50;;;;;;;7.20;nan;-24018.06;5012663;28;20176;-72
2022/11/05 02:54:18;;;;;;;23.73;11.13;;;;;;;7.40;nan;-24023.72;5014550;28;20622;-72
2022/11/05 02:56:47;;;;;;;26.13;11.50;;;;;;;7.07;nan;-24014.50;5019335;28;20191;-71
2022/11/05 02:59:13;;;;;;;23.77;11.10;;;;;;;7.32;nan;-24021.31;5019069;28;20191;-72
2022/11/05 03:01:40;;;;;;;24.47;12.47;;;;;;;7.32;nan;-24021.31;5017043;28;20678;-72
2022/11/05 03:04:11;;;;;;;20.27;10.97;;;;;;;7.30;nan;-24020.75;5017569;28;20766;-73
2022/11/05 03:07:13;;;;;;;20.23;10.17;;;;;;;7.41;nan;-24023.88;5013262;28;20172;-74
2022/11/05 03:10:15;;;;;;;22.67;10.43;;;;;;;7.38;nan;-24023.00;5011901;28;20179;-73
2022/11/05 03:12:57;;;;;;;18.03;10.90;;;;;;;7.28;nan;-24020.19;5012499;28;20190;-73
2022/11/05 03:15:56;;;;;;;22.70;11.20;;;;;;;7.33;nan;-24021.59;5012249;28;20543;-73
2022/11/05 03:18:32;;;;;;;21.73;10.03;;;;;;;7.36;nan;-24022.44;5012087;28;20226;-73
2022/11/05 03:21:01;;;;;;;27.33;12.00;;;;;;;6.89;nan;-24009.41;5012214;28;20195;-73
2022/11/05 03:23:35;;;;;;;24.83;9.83;;;;;;;7.29;nan;-24020.59;5010553;28;20184;-74
2022/11/05 03:26:09;;;;;;;18.70;8.13;;;;;;;7.32;nan;-24021.47;5011509;28;20707;-74
2022/11/05 03:28:38;;;;;;;18.93;8.10;;;;;;;7.16;nan;-24016.78;5011576;28;20242;-72
2022/11/05 03:31:06;;;;;;;20.50;10.43;;;;;;;6.94;nan;-24010.69;5011537;28;20176;-73
2022/11/05 03:33:35;;;;;;;19.03;9.37;;;;;;;7.18;nan;-24017.47;5010191;28;20580;-73
2022/11/05 03:36:04;;;;;;;18.27;9.30;;;;;;;7.13;nan;-24015.94;5010333;28;20570;-73
2022/11/05 03:38:34;;;;;;;25.50;11.07;;;;;;;6.90;nan;-24009.69;5011768;28;20188;-73
2022/11/05 03:41:05;;;;;;;25.53;10.80;;;;;;;7.19;nan;-24017.63;5013183;28;20207;-73
2022/11/05 03:43:36;;;;;;;20.77;10.73;;;;;;;7.13;nan;-24015.94;5013289;28;20638;-71
2022/11/05 03:46:08;;;;;;;18.90;9.33;;;;;;;6.93;nan;-24010.53;5011122;28;20168;-71
2022/11/05 03:52:06;;;;;;;15.27;8.57;;;;;;;7.09;nan;-24014.94;5007616;28;20191;-72
2022/11/05 03:54:32;;;;;;;20.93;10.43;;;;;;;7.06;nan;-24014.22;5011473;28;20171;-74
2022/11/05 03:57:21;;;;;;;17.50;9.67;;;;;;;7.07;nan;-24014.50;5011657;28;20191;-74
2022/11/05 03:59:49;;;;;;;22.80;9.00;;;;;;;6.90;nan;-24009.53;5010821;28;20581;-74
2022/11/05 04:02:16;;;;;;;15.90;8.37;;;;;;;7.10;nan;-24015.22;5010642;28;20714;-72
2022/11/05 04:04:42;;;;;;;19.73;10.00;;;;;;;6.78;nan;-24006.28;5011616;28;20245;-73
2022/11/05 04:15:21;;;;;;;18.53;8.73;;;;;;;6.65;nan;-24002.59;5011858;28;20610;-72
2022/11/05 04:17:46;;;;;;;17.27;8.13;;;;;;;6.66;nan;-24002.88;5011349;28;20286;-72
2022/11/05 04:25:49;;;;;;;17.73;8.33;;;;;;;6.52;nan;-23998.91;5011330;28;20290;-72
2022/11/05 04:28:14;;;;;;;16.47;9.27;;;;;;;6.31;nan;-23992.94;5011196;28;20185;-73
2022/11/05 04:30:40;;;;;;;18.20;9.87;;;;;;;6.53;nan;-23999.19;5011191;28;20169;-74
2022/11/05 04:33:07;;;;;;;16.03;8.67;;;;;;;6.66;nan;-24002.88;5011484;28;20187;-73
2022/11/05 04:35:35;;;;;;;14.97;7.60;;;;;;;6.62;nan;-24001.75;5010081;28;20283;-74
2022/11/05 04:38:05;;;;;;;23.63;9.07;;;;;;;6.46;nan;-23997.19;5014896;28;20230;-72
2022/11/05 04:40:31;;;;;;;17.27;8.20;;;;;;;6.27;nan;-23991.81;5013607;28;20241;-72
2022/11/05 04:42:57;;;;;;;18.67;7.87;;;;;;;6.54;nan;-23999.63;5014888;28;20180;-72
2022/11/05 04:45:24;;;;;;;19.33;9.13;;;;;;;6.72;nan;-24004.44;5014635;28;20628;-72
2022/11/05 04:47:50;;;;;;;13.23;7.90;;;;;;;5.43;nan;-23968.34;5014828;28;20195;-73
2022/11/05 04:50:15;;;;;;;19.13;9.17;;;;;;;6.43;nan;-23996.34;5013299;28;20178;-73
2022/11/05 04:52:41;;;;;;;15.10;7.87;;;;;;;6.34;nan;-23993.78;5014651;28;20270;-73
2022/11/05 04:55:07;;;;;;;27.33;7.93;;;;;;;6.03;nan;-23985.28;5014434;28;20187;-72
2022/11/05 04:57:32;;;;;;;14.53;8.00;;;;;;;5.76;nan;-23977.59;5014067;28;20210;-72
2022/11/05 04:59:58;;;;;;;18.47;9.23;;;;;;;6.09;nan;-23986.97;5014432;28;20177;-73
2022/11/05 05:02:23;;;;;;;14.90;8.17;;;;;;;5.92;nan;-23982.16;5014597;28;20187;-73
2022/11/05 05:04:48;;;;;;;12.87;6.50;;;;;;;6.20;nan;-23990.09;5014323;28;20184;-74
2022/11/05 05:07:14;;;;;;;18.57;8.80;;;;;;;6.09;nan;-23986.84;5014400;28;20175;-72
2022/11/05 05:09:39;;;;;;;17.17;8.73;;;;;;;6.24;nan;-23990.94;5014398;28;20558;-73
2022/11/05 05:12:05;;;;;;;11.00;7.83;;;;;;;6.09;nan;-23986.84;5014432;28;20181;-72
2022/11/05 05:14:30;;;;;;;16.53;8.57;;;;;;;5.90;nan;-23981.56;5013691;28;20255;-73
2022/11/05 05:16:56;;;;;;;17.60;8.57;;;;;;;6.15;nan;-23988.69;5012710;28;20353;-73
2022/11/05 05:19:23;;;;;;;20.53;9.00;;;;;;;5.79;nan;-23978.44;5014201;28;20176;-74
2022/11/05 05:21:48;;;;;;;18.27;8.20;;;;;;;5.81;nan;-23979.00;5013621;28;20169;-73
2022/11/05 05:24:17;;;;;;;16.77;8.17;;;;;;;5.99;nan;-23984.13;5014091;28;20183;-72
2022/11/05 05:26:50;;;;;;;10.80;6.67;;;;;;;6.38;nan;-23995.06;5013889;28;20361;-72
2022/11/05 05:29:16;;;;;;;14.97;8.43;;;;;;;6.25;nan;-23991.22;5019377;28;20288;-74
2022/11/05 05:31:42;;;;;;;16.20;7.43;;;;;;;6.45;nan;-23997.06;5034093;28;20566;-74
2022/11/05 05:34:11;;;;;;;21.00;8.43;;;;;;;6.15;nan;-23988.69;5033722;28;20663;-74
2022/11/05 05:36:36;;;;;;;12.57;7.70;;;;;;;6.20;nan;-23990.09;5033692;28;20421;-73
2022/11/05 05:39:05;;;;;;;19.03;8.30;;;;;;;6.64;nan;-24002.44;5033707;28;20662;-73
2022/11/05 05:41:30;;;;;;;10.23;6.73;;;;;;;6.69;nan;-24003.72;5033956;28;20226;-73
2022/11/05 05:43:56;;;;;;;17.20;7.63;;;;;;;6.63;nan;-24002.16;5033783;28;20295;-74
2022/11/05 05:46:21;;;;;;;13.50;7.47;;;;;;;6.83;nan;-24007.69;5033511;28;20723;-72
2022/11/05 05:48:49;;;;;;;15.10;7.87;;;;;;;6.59;nan;-24001.03;5033327;28;20187;-71
2022/11/05 05:51:14;;;;;;;16.43;8.40;;;;;;;6.50;nan;-23998.47;5033566;28;20182;-72
2022/11/05 05:53:40;;;;;;;16.73;8.50;;;;;;;7.09;nan;-24014.94;5033102;28;20171;-73
2022/11/05 05:56:05;;;;;;;14.33;7.77;;;;;;;6.85;nan;-24008.13;5031876;28;20171;-74
2022/11/05 05:58:35;;;;;;;13.30;7.40;;;;;;;7.05;nan;-24013.94;5033305;28;20638;-72
2022/11/05 06:01:03;;;;;;;16.13;7.47;;;;;;;7.50;nan;-24026.56;5031862;28;20186;-73
2022/11/05 06:03:29;;;;;;;24.67;9.53;;;;;;;7.58;nan;-24028.69;5031802;28;20692;-73
2022/11/05 06:06:06;;;;;;;15.93;9.60;;;;;;;7.46;nan;-24025.28;5033353;28;20236;-73
2022/11/05 06:08:32;;;;;;;15.43;8.90;;;;;;;8.08;nan;-24042.56;5032923;28;20568;-74
2022/11/05 06:10:58;;;;;;;16.60;10.50;;;;;;;7.86;nan;-24036.63;5032689;28;20215;-73
2022/11/05 06:13:25;;;;;;;20.47;9.10;;;;;;;8.17;nan;-24045.13;5033072;28;20696;-73
2022/11/05 06:15:50;;;;;;;16.03;8.87;;;;;;;8.14;nan;-24044.28;5032708;28;20671;-73
2022/11/05 06:18:16;;;;;;;16.47;8.37;;;;;;;8.51;nan;-24054.59;5032915;28;20207;-74
2022/11/05 06:20:41;;;;;;;23.33;10.63;;;;;;;8.75;nan;-24061.41;5031307;28;20179;-72
2022/11/05 06:23:07;;;;;;;18.13;9.50;;;;;;;8.91;nan;-24065.78;5031417;28;20273;-77
2022/11/05 06:25:32;;;;;;;21.33;9.47;;;;;;;9.11;nan;-24071.44;5032342;28;20230;-74
2022/11/05 06:27:58;;;;;;;26.67;11.60;;;;;;;9.22;nan;-24074.56;5032570;28;20631;-72
2022/11/05 06:30:23;;;;;;;21.63;10.47;;;;;;;9.46;nan;-24081.19;5032840;28;20626;-75
2022/11/05 06:32:48;;;;;;;24.47;11.07;;;;;;;9.45;nan;-24081.06;5032734;28;20207;-73
2022/11/05 06:35:14;;;;;;;21.87;10.80;;;;;;;9.56;nan;-24084.03;5032691;28;20697;-73
2022/11/05 06:37:39;;;;;;;24.77;10.07;;;;;;;9.52;nan;-24083.03;5032678;28;20205;-74
2022/11/05 06:40:06;;;;;;;22.47;10.90;;;;;;;9.41;nan;-24079.78;5024044;28;20586;-73
2022/11/05 06:42:31;;;;;;;19.47;10.73;;;;;;;9.58;nan;-24084.59;5012351;28;20201;-73
2022/11/05 06:44:57;;;;;;;32.17;13.30;;;;;;;10.05;nan;-24097.72;5012215;28;20184;-73
2022/11/05 06:47:22;;;;;;;20.00;10.20;;;;;;;10.28;nan;-24104.22;5012558;28;20180;-72
2022/11/05 06:49:47;;;;;;;22.17;10.63;;;;;;;10.19;nan;-24101.69;5012519;28;20180;-72
2022/11/05 06:52:14;;;;;;;23.03;9.67;;;;;;;7.47;nan;-24025.72;5012043;28;20180;-74
2022/11/05 06:54:41;;;;;;;23.90;10.90;;;;;;;10.48;nan;-24109.72;5010423;28;20267;-73
2022/11/05 06:57:08;;;;;;;20.97;10.70;;;;;;;10.28;nan;-24104.06;5010760;28;20226;-73
2022/11/05 06:59:35;;;;;;;18.23;9.57;;;;;;;10.59;nan;-24112.97;5011728;28;20164;-74
2022/11/05 07:02:00;;;;;;;18.67;10.67;;;;;;;10.85;nan;-24120.03;5012387;28;20255;-74
2022/11/05 07:04:26;;;;;;;18.30;10.13;;;;;;;10.84;nan;-24119.75;5019562;28;20378;-73
2022/11/05 07:06:51;;;;;;;20.77;10.13;;;;;;;10.77;nan;-24117.78;5015685;28;20630;-74
2022/11/05 07:09:17;;;;;;;22.33;10.75;;;;;;;10.69;nan;-24115.66;5030437;28;20546;-80
2022/11/05 07:11:42;;;;;;;19.93;10.73;;;;;;;11.01;nan;-24124.53;5026513;28;20659;-78
2022/11/05 07:14:07;;;;;;;20.77;10.32;;;;;;;11.16;nan;-24128.63;5012462;28;20176;-78
2022/11/05 07:16:33;;;;;;;24.45;11.20;;;;;;;11.23;nan;-24130.59;5011618;28;20279;-76
2022/11/05 07:18:58;;;;;;;22.30;11.05;;;;;;;11.18;nan;-24129.19;5011993;28;20254;-79
2022/11/05 07:21:23;;;;;;;20.63;10.68;;;;;;;11.42;nan;-24135.97;5010492;28;20628;-79
2022/11/05 07:23:49;;;;;;;21.38;10.20;;;;;;;11.40;nan;-24135.38;5010255;28;20206;-77
2022/11/05 07:26:14;;;;;;;23.58;10.95;;;;;;;11.61;nan;-24141.31;5010946;28;20219;-78
2022/11/05 07:28:40;;;;;;;24.92;10.38;;;;;;;11.93;nan;-24150.31;5011722;28;20187;-80
2022/11/05 07:31:05;;;;;;;17.45;9.25;;;;;;;11.89;nan;-24149.06;5011787;28;20172;-78
2022/11/05 07:33:31;;;;;;;20.77;9.60;;;;;;;12.11;nan;-24155.13;5022230;28;20666;-79
2022/11/05 07:35:57;;;;;;;18.40;9.82;;;;;;;12.05;nan;-24153.56;5011927;28;20172;-77
2022/11/05 07:38:22;;;;;;;21.30;9.80;;;;;;;12.42;nan;-24163.84;5011601;28;20287;-79
2022/11/05 07:40:48;;;;;;;27.20;11.90;;;;;;;12.42;nan;-24163.69;5011379;28;20263;-77
2022/11/05 07:43:15;;;;;;;25.85;11.77;;;;;;;12.58;nan;-24168.34;5011503;28;20183;-81
2022/11/05 07:45:40;;;;;;;17.88;9.38;;;;;;;12.86;nan;-24176.06;5010437;28;20237;-78
2022/11/05 07:48:06;;;;;;;20.55;10.18;;;;;;;12.79;nan;-24174.25;5011695;28;20183;-79
2022/11/05 07:50:34;;;;;;;23.08;9.43;;;;;;;13.11;nan;-24182.97;5011805;28;20164;-78
2022/11/05 07:53:05;;;;;;;21.70;9.60;;;;;;;12.88;nan;-24176.63;5025876;28;20187;-79
2022/11/05 07:55:31;;;;;;;21.75;10.05;;;;;;;12.99;nan;-24179.72;5027595;28;20641;-79
2022/11/05 07:57:57;;;;;;;20.10;10.20;;;;;;;12.93;nan;-24178.03;5025052;28;20200;-79
2022/11/05 08:00:24;;;;;;;20.83;9.27;;;;;;;13.13;nan;-24183.66;5011751;28;20164;-79
2022/11/05 08:03:01;;;;;;;21.83;10.35;;;;;;;13.18;nan;-24185.06;5022215;28;20253;-80
2022/11/05 08:05:28;;;;;;;22.13;10.35;;;;;;;13.02;nan;-24180.56;5029951;28;20528;-79
2022/11/05 08:07:55;;;;;;;20.05;9.95;;;;;;;12.95;nan;-24178.59;5030028;28;20207;-80
2022/11/05 08:10:23;;;;;;;18.33;10.10;;;;;;;13.42;nan;-24191.53;5031933;28;20311;-80
2022/11/05 08:12:49;;;;;;;20.58;10.32;;;;;;;13.40;nan;-24190.97;5033540;28;20210;-82
2022/11/05 08:15:14;;;;;;;22.17;10.23;;;;;;;13.79;nan;-24201.91;5035328;28;20175;-77
2022/11/05 08:17:40;;;;;;;23.75;9.85;;;;;;;13.55;nan;-24195.19;5034778;28;20195;-77
2022/11/05 08:20:07;;;;;;;19.70;9.45;;;;;;;13.41;nan;-24191.25;5034354;28;20631;-77
2022/11/05 08:22:32;;;;;;;20.35;9.75;;;;;;;13.95;nan;-24206.28;5034448;28;20172;-77
2022/11/05 08:24:58;;;;;;;17.13;9.13;;;;;;;14.09;nan;-24210.34;5033131;28;20653;-79
2022/11/05 08:27:23;;;;;;;23.95;10.60;;;;;;;13.85;nan;-24203.47;5034811;28;20310;-77
2022/11/05 08:29:49;;;;;;;19.88;9.82;;;;;;;14.57;nan;-24223.53;5032891;28;20184;-77
2022/11/05 08:32:15;;;;;;;21.02;8.95;;;;;;;14.61;nan;-24224.66;5034330;28;20281;-76
2022/11/05 08:34:41;;;;;;;18.70;9.35;;;;;;;14.67;nan;-24226.34;5033801;28;20570;-77
2022/11/05 08:37:07;;;;;;;25.05;11.05;;;;;;;14.90;nan;-24232.78;5034405;28;20720;-78
2022/11/05 08:39:32;;;;;;;22.58;9.55;;;;;;;14.81;nan;-24230.13;5032648;28;20187;-78
2022/11/05 08:41:57;;;;;;;19.70;9.48;;;;;;;14.58;nan;-24223.94;5034498;28;20178;-75
2022/11/05 08:44:23;;;;;;;20.25;9.93;;;;;;;15.00;nan;-24235.44;5032895;28;20278;-77
2022/11/05 08:46:48;;;;;;;18.83;9.65;;;;;;;15.07;nan;-24237.28;5033762;28;20179;-75
2022/11/05 08:49:14;;;;;;;21.25;9.27;;;;;;;14.90;nan;-24232.78;5034188;28;20262;-75
2022/11/05 08:51:39;;;;;;;19.77;9.15;;;;;;;15.20;nan;-24240.91;5034369;28;20163;-77
2022/11/05 08:54:05;;;;;;;25.40;9.98;;;;;;;15.04;nan;-24236.72;5032993;28;20712;-77
2022/11/05 08:56:30;;;;;;;22.63;9.40;;;;;;;14.76;nan;-24228.72;5032941;28;20191;-78
2022/11/05 08:58:55;;;;;;;18.65;9.43;;;;;;;14.94;nan;-24233.91;5029052;28;20180;-79
2022/11/05 09:01:21;;;;;;;22.25;9.90;;;;;;;15.15;nan;-24239.66;5030983;28;20168;-78
2022/11/05 09:03:50;;;;;;;25.67;10.18;;;;;;;15.11;nan;-24238.53;5013984;28;20233;-78
2022/11/05 09:06:15;;;;;;;18.20;8.88;;;;;;;15.62;nan;-24252.53;5022714;28;20187;-78
2022/11/05 09:08:41;;;;;;;21.70;9.98;;;;;;;15.62;nan;-24252.53;5033638;28;20194;-77
2022/11/05 09:11:07;;;;;;;21.02;9.80;;;;;;;15.61;nan;-24252.41;5034004;28;20164;-77
2022/11/05 09:13:33;;;;;;;24.50;10.98;;;;;;;15.49;nan;-24249.16;5033864;28;20622;-77
2022/11/05 09:15:58;;;;;;;23.38;10.77;;;;;;;15.45;nan;-24248.06;5032471;28;20186;-77
2022/11/05 09:18:24;;;;;;;22.80;11.80;;;;;;;15.58;nan;-24251.56;5033384;28;20281;-77
2022/11/05 09:20:50;;;;;;;20.23;9.88;;;;;;;15.64;nan;-24253.09;5033869;28;20164;-76
2022/11/05 09:23:16;;;;;;;25.73;11.13;;;;;;;15.29;nan;-24243.44;5033182;28;20250;-78
2022/11/05 09:25:42;;;;;;;24.55;9.80;;;;;;;15.62;nan;-24252.53;5031729;28;20320;-79
2022/11/05 09:28:19;;;;;;;19.08;11.15;;;;;;;15.58;nan;-24251.56;5033894;28;20171;-78
2022/11/05 09:30:47;;;;;;;23.70;11.60;;;;;;;15.94;nan;-24261.34;5033627;28;20614;-78
2022/11/05 09:33:14;;;;;;;20.50;11.18;;;;;;;16.19;nan;-24268.47;5033807;28;20258;-80
2022/11/05 09:35:40;;;;;;;25.73;11.85;;;;;;;15.80;nan;-24257.72;5037770;28;20178;-77
2022/11/05 09:38:06;;;;;;;27.50;11.77;;;;;;;15.98;nan;-24262.59;5033083;28;20203;-77
2022/11/05 09:40:38;;;;;;;20.63;11.20;;;;;;;15.74;nan;-24256.03;5032539;28;20182;-78
2022/11/05 09:43:05;;;;;;;25.30;11.98;;;;;;;16.00;nan;-24263.03;5034064;28;20534;-77
2022/11/05 09:45:34;;;;;;;26.45;12.32;;;;;;;15.83;nan;-24258.56;5026442;28;20693;-77
2022/11/05 09:48:09;;;;;;;28.10;13.18;;;;;;;16.24;nan;-24269.75;5018639;28;20188;-78
2022/11/05 09:50:53;;;;;;;23.38;11.27;;;;;;;15.89;nan;-24260.09;5017492;28;20179;-79
2022/11/05 09:53:22;;;;;;;22.55;11.18;;;;;;;15.87;nan;-24259.66;5018208;28;20685;-77
2022/11/05 09:55:52;;;;;;;25.00;11.18;;;;;;;16.15;nan;-24267.22;5017972;28;20250;-78
2022/11/05 09:58:19;;;;;;;24.48;12.60;;;;;;;16.58;nan;-24279.13;5017117;28;20211;-76
2022/11/05 10:00:49;;;;;;;25.58;11.25;;;;;;;16.28;nan;-24270.84;5017703;28;20179;-75
2022/11/05 10:03:20;;;;;;;25.20;11.35;;;;;;;16.22;nan;-24269.31;5017707;28;20211;-76
2022/11/05 10:05:48;;;;;;;26.25;10.57;;;;;;;16.49;nan;-24276.72;5040751;28;20195;-79
2022/11/05 10:08:25;;;;;;;18.58;10.00;;;;;;;16.34;nan;-24272.53;5016681;28;20659;-77
2022/11/05 10:11:06;;;;;;;20.38;9.90;;;;;;;16.64;nan;-24280.94;5019244;28;20230;-78
2022/11/05 10:13:34;;;;;;;24.77;10.02;;;;;;;16.71;nan;-24282.88;5017715;28;20263;-77
2022/11/05 10:16:25;;;;;;;20.58;9.07;;;;;;;16.67;nan;-24281.78;5017159;28;20304;-77
2022/11/05 10:19:06;;;;;;;26.45;11.43;;;;;;;16.66;nan;-24281.50;5018386;28;20274;-77
2022/11/05 10:21:31;;;;;;;23.55;8.90;;;;;;;16.61;nan;-24280.09;5018045;28;20553;-78
2022/11/05 10:23:57;;;;;;;23.20;10.32;;;;;;;16.88;nan;-24287.50;5016505;28;20659;-78
2022/11/05 10:26:28;;;;;;;26.00;11.80;;;;;;;16.70;nan;-24282.47;5015769;28;20314;-78
2022/11/05 10:28:54;;;;;;;25.52;10.93;;;;;;;16.69;nan;-24282.19;5015776;28;20659;-77
2022/11/05 10:31:21;;;;;;;21.70;11.27;;;;;;;16.80;nan;-24285.25;5017136;28;20211;-76
2022/11/05 10:33:59;;;;;;;22.95;11.05;;;;;;;17.05;nan;-24292.09;5016474;28;20656;-79
2022/11/05 10:36:30;;;;;;;23.60;11.40;;;;;;;17.13;nan;-24294.47;5017486;28;20202;-76
2022/11/05 10:39:05;;;;;;;24.45;10.93;;;;;;;17.11;nan;-24293.91;5017718;28;20187;-76
2022/11/05 10:41:41;;;;;;;22.58;10.05;;;;;;;16.88;nan;-24287.50;5017554;28;20183;-76
2022/11/05 10:44:24;;;;;;;22.77;11.00;;;;;;;17.12;nan;-24294.06;5017162;28;20179;-78
2022/11/05 10:47:05;;;;;;;21.83;10.50;;;;;;;17.44;nan;-24303.00;5019097;28;20278;-78
2022/11/05 10:49:59;;;;;;;21.30;9.88;;;;;;;17.32;nan;-24299.63;5035838;28;20285;-78
2022/11/05 10:52:47;;;;;;;22.85;9.88;;;;;;;17.30;nan;-24299.09;5029832;28;20694;-79
2022/11/05 10:55:19;;;;;;;20.58;10.05;;;;;;;17.09;nan;-24293.22;5016061;28;20204;-79
2022/11/05 10:57:46;;;;;;;19.63;9.25;;;;;;;17.25;nan;-24297.69;5017321;28;20203;-79
2022/11/05 11:00:15;;;;;;;22.65;10.45;;;;;;;17.55;nan;-24305.91;5030445;28;20197;-79
2022/11/05 11:02:50;;;;;;;18.80;8.93;;;;;;;17.19;nan;-24296.00;5018607;28;20200;-80
2022/11/05 11:05:37;;;;;;;20.63;9.77;;;;;;;17.31;nan;-24299.22;5012002;28;20176;-79
2022/11/05 11:08:25;;;;;;;23.08;9.75;;;;;;;17.20;nan;-24296.44;5011701;28;20238;-76
2022/11/05 11:10:57;;;;;;;18.35;9.25;;;;;;;17.43;nan;-24302.56;5011723;28;20227;-77
2022/11/05 11:13:28;;;;;;;19.77;8.68;;;;;;;17.39;nan;-24301.59;5012027;28;20172;-76
2022/11/05 11:16:18;;;;;;;19.02;8.25;;;;;;;17.65;nan;-24308.72;5010409;28;20172;-75
2022/11/05 11:18:43;;;;;;;20.70;9.48;;;;;;;17.96;nan;-24317.34;5012206;28;20175;-76
2022/11/05 11:21:14;;;;;;;18.83;9.35;;;;;;;18.07;nan;-24320.44;5010147;28;20694;-77
2022/11/05 11:23:41;;;;;;;17.63;8.77;;;;;;;17.89;nan;-24315.28;5011963;28;20160;-77
2022/11/05 11:26:08;;;;;;;20.35;8.85;;;;;;;18.28;nan;-24326.00;5011764;28;20299;-77
2022/11/05 11:28:44;;;;;;;26.35;9.32;;;;;;;18.18;nan;-24323.34;5011786;28;20172;-79
2022/11/05 11:31:12;;;;;;;17.45;8.27;;;;;;;18.23;nan;-24324.75;5010965;28;20267;-77
2022/11/05 11:33:41;;;;;;;19.70;9.45;;;;;;;18.21;nan;-24324.19;5010572;28;20249;-77
2022/11/05 11:36:08;;;;;;;18.75;8.00;;;;;;;18.48;nan;-24331.56;5012032;28;20172;-77
2022/11/05 11:38:35;;;;;;;19.85;9.25;;;;;;;18.54;nan;-24333.38;5012624;28;20203;-77
2022/11/05 11:41:12;;;;;;;15.23;9.02;;;;;;;18.84;nan;-24341.47;5016250;28;20310;-79
2022/11/05 11:43:40;;;;;;;18.20;8.82;;;;;;;18.49;nan;-24332.00;5011014;28;20204;-78
2022/11/05 11:46:19;;;;;;;20.05;9.13;;;;;;;18.78;nan;-24339.94;5013352;28;20725;-79
2022/11/05 11:48:47;;;;;;;23.98;8.88;;;;;;;18.81;nan;-24340.78;5015879;28;20613;-78
2022/11/05 11:51:29;;;;;;;20.38;8.27;;;;;;;18.80;nan;-24340.34;5015961;28;20245;-78
2022/11/05 11:53:59;;;;;;;17.85;7.57;;;;;;;18.81;nan;-24340.78;5014669;28;20566;-78
2022/11/05 11:56:24;;;;;;;17.63;8.23;;;;;;;18.74;nan;-24338.69;5015726;28;20192;-77
2022/11/05 11:58:55;;;;;;;16.00;8.32;;;;;;;18.27;nan;-24325.88;5014230;28;20180;-78
2022/11/05 12:01:40;;;;;;;14.63;7.93;;;;;;;18.45;nan;-24330.75;5016190;28;20171;-76
2022/11/05 12:04:32;;;;;;;18.63;8.05;;;;;;;18.34;nan;-24327.81;5015715;28;20244;-77
2022/11/05 12:07:22;;;;;;;18.55;8.57;;;;;;;18.45;nan;-24330.88;5015633;28;20164;-77
2022/11/05 12:10:15;;;;;;;19.58;8.50;;;;;;;18.37;nan;-24328.50;5015867;28;20184;-76
2022/11/05 12:12:56;;;;;;;21.48;9.57;;;;;;;18.01;nan;-24318.75;5015575;28;20168;-77
2022/11/05 12:15:45;;;;;;;18.80;8.63;;;;;;;17.89;nan;-24315.28;5014811;28;20175;-76
2022/11/05 12:18:29;;;;;;;20.42;10.27;;;;;;;18.09;nan;-24320.97;5015569;28;20204;-75
2022/11/05 12:21:13;;;;;;;23.40;9.80;;;;;;;18.16;nan;-24322.66;5015276;28;20168;-76
2022/11/05 12:23:50;;;;;;;19.17;9.23;;;;;;;17.70;nan;-24309.97;5014637;28;20631;-76
2022/11/05 12:26:40;;;;;;;24.58;9.20;;;;;;;18.07;nan;-24320.44;5014446;28;20241;-78
2022/11/05 12:29:22;;;;;;;27.95;10.38;;;;;;;18.18;nan;-24323.34;5014766;28;20643;-78